Latest Coastal Weather Observations for Brisbane Airport

IDQ60701

Issued at 5:12 pm EST Saturday 30 April 2016 (issued every 10 minutes, with the page automatically refreshed every 10 minutes)

About coastal observations | Map of coastal stations | Coastal observations for QLD | Marine services | Other Formats
Station Details ID: 040842 Name: BRISBANE AERO Lat: -27.39 Lon: 153.13 Height: 4.51 m
Data from the previous 72 hours. | See also: Recent months at Brisbane Airport
Date/Time
EST
Temp

°C
Wind Pressure Rain
since 9am
mm
Weather Cloud Vis
km
Sea
Height
m
Swell
Dir
 
Speed
knots
Gust
knots
hPa Trend Height
m
Period
s
Dir
30/05:00pm 24.4 NE 8 9 1018.6 - 0.2 - Mostly clear 10 - - - -
30/04:30pm 24.9 NE 9 11 1018.3 - 0.2 - Mostly clear 10 - - - -
30/04:00pm 25.1 NE 8 11 1018.3 - 0.2 - Mostly clear 10 - - - -
30/03:30pm 25.5 NE 8 11 1018.2 - 0.2 - Mostly clear 10 - - - -
30/03:00pm 26.0 NNE 10 13 1018.1 F 0.2 Fine Partly cloudy 25 - - - -
30/02:30pm 27.1 NE 10 14 1018.1 - 0.2 - Mostly clear 10 - - - -
30/02:00pm 26.7 NE 11 14 1018.2 - 0.2 - Mostly clear 10 - - - -
30/01:30pm 26.8 NE 10 14 1018.4 - 0.2 - Partly cloudy 10 - - - -
30/01:00pm 27.1 NE 8 10 1018.8 - 0.2 - Mostly clear 10 - - - -
30/12:30pm 27.2 ENE 8 10 1019.2 - 0.2 - Partly cloudy 10 - - - -
30/12:00pm 26.6 NE 7 10 1019.7 F 0.2 Fine Mostly cloudy 25 - - - -
30/11:30am 26.5 NE 6 10 1020.3 - 0.2 - Partly cloudy 10 - - - -
30/11:00am 25.5 ENE 6 9 1020.7 - 0.2 - Mostly clear 10 - - - -
30/10:30am 25.7 E 3 6 1021.2 - 0.0 - Mostly clear 10 - - - -
30/10:00am 25.6 S 4 6 1021.6 - 0.0 - Mostly clear 10 - - - -
30/09:30am 23.8 SSW 5 7 1021.7 - 0.0 - Mostly clear 10 - - - -
30/09:00am 22.6 SSW 5 7 1021.8 F 2.0 Fine Mostly cloudy 20 - - - -
30/08:30am 21.9 SW 6 7 1021.7 - 2.0 - Mostly clear 10 - - - -
30/08:00am 20.9 SSW 6 8 1021.6 - 2.0 - Mostly clear 10 - - - -
30/07:30am 20.6 SSW 7 9 1021.4 - 2.0 - Mostly clear 10 - - - -
30/07:00am 20.2 SSW 6 7 1021.1 - 2.0 - Mostly clear 9 - - - -
30/06:30am 19.7 SSW 7 9 1020.9 - 2.0 - Mostly clear 10 - - - -
30/06:00am 19.6 SSW 6 8 1020.7 F 2.0 Distant precip. Mostly cloudy 18 - - - -
30/05:30am 19.7 SSW 6 8 1020.3 - 2.0 - Mostly clear 10 - - - -
30/05:00am 19.9 SSW 7 8 1020.3 - 2.0 - Mostly clear 10 - - - -
30/04:30am 20.1 SSW 5 6 1020.1 - 2.0 - Mostly clear 10 - - - -
30/04:00am 20.3 SSW 6 8 1020.0 - 2.0 - Mostly clear 10 - - - -
30/03:30am 20.3 SW 6 6 1020.2 - 2.0 - Mostly clear 10 - - - -
30/03:00am 20.4 SW 5 6 1020.2 F 2.0 Distant precip. Mostly cloudy 20 - - - -
30/02:30am 20.4 SSW 4 5 1020.3 - 2.0 - Mostly clear 10 - - - -
30/02:00am 20.4 SSW 5 5 1020.7 - 2.0 - Mostly clear 10 - - - -
30/01:30am 20.4 SSW 4 5 1020.9 - 2.0 - Mostly clear 10 - - - -
30/01:00am 20.4 CALM 0 0 1021.2 - 2.0 - Mostly clear 10 - - - -
30/12:30am 20.6 W 1 4 1021.5 - 2.0 - Mostly clear 10 - - - -
30/12:00am 20.7 S 1 4 1021.6 F 2.0 Recent precip. Mostly cloudy 20 - - - -
 
Date/Time
EST
Temp

°C
Wind Pressure Rain
since 9am
mm
Weather Cloud Vis
km
Sea
Height
m
Swell
Dir
 
Speed
knots
Gust
knots
hPa Trend Height
m
Period
s
Dir
29/11:30pm 20.5 SSW 4 5 1021.8 - 2.0 Showers Mostly clear 10 - - - -
29/11:00pm 20.7 SSE 4 5 1022.2 - 2.0 - Mostly clear 10 - - - -
29/10:30pm 20.7 S 5 6 1022.3 - 2.0 - Mostly clear 10 - - - -
29/10:00pm 21.0 SSE 3 5 1022.5 - 2.0 - Mostly clear 10 - - - -
29/09:30pm 21.1 SSW 5 6 1022.4 - 2.0 - Partly cloudy 10 - - - -
29/09:00pm 21.5 S 4 5 1022.3 F 2.0 Distant precip. Mostly cloudy 20 - - - -
29/08:30pm 21.8 SE 2 5 1022.2 - 2.0 - Mostly clear 10 - - - -
29/08:00pm 22.3 ESE 4 8 1022.1 - 1.8 - Mostly clear 10 - - - -
29/07:30pm 22.2 E 5 7 1022.0 - 1.6 Showers Partly cloudy 9 - - - -
29/07:00pm 22.5 SE 4 5 1021.5 - 1.4 - Mostly clear 10 - - - -
29/06:30pm 22.5 ESE 4 7 1021.4 - 1.4 - Mostly clear 10 - - - -
29/06:00pm 22.7 E 5 7 1021.2 F 1.4 Distant precip. Mostly cloudy 20 - - - -
29/05:30pm 22.7 E 6 10 1021.0 - 1.4 - Mostly clear 10 - - - -
29/05:00pm 22.9 SE 5 8 1020.7 - 1.4 - Mostly clear 10 - - - -
29/04:30pm 23.1 ESE 5 8 1020.5 - 1.4 - Mostly clear 10 - - - -
29/04:00pm 23.0 ESE 7 11 1020.2 - 1.4 - Mostly clear 10 - - - -
29/03:30pm 23.1 ESE 7 11 1020.2 - 1.4 - Mostly clear 10 - - - -
29/03:00pm 22.0 ESE 7 12 1020.3 R 1.2 Showers Mostly cloudy 8 - - - -
29/02:30pm 24.6 E 9 12 1020.3 - 0.0 - Mostly clear 10 - - - -
29/02:00pm 24.8 E 8 11 1020.4 - 0.0 - Mostly clear 10 - - - -
29/01:30pm 25.3 E 9 14 1020.5 - 0.0 - Mostly clear 10 - - - -
29/01:00pm 24.6 ESE 6 9 1020.7 - 0.0 - Partly cloudy 10 - - - -
29/12:30pm 24.7 SE 7 10 1021.1 - 0.0 - Partly cloudy 10 - - - -
29/12:00pm 24.5 ESE 6 8 1021.5 F 0.0 Distant precip. Partly cloudy 20 - - - -
29/11:30am 23.8 S 4 7 1022.2 - 0.0 - Mostly clear 10 - - - -
29/11:00am 22.2 SW 7 10 1023.0 - 0.0 - Mostly clear 10 - - - -
29/10:30am 21.3 WSW 8 10 1023.7 - 0.0 Drizzle Mostly clear 9 - - - -
29/10:00am 21.3 SW 7 9 1024.1 - 0.0 - Mostly clear 10 - - - -
29/09:30am 20.9 SSW 7 10 1024.0 - 0.0 - Mostly clear 9 - - - -
29/09:00am 19.8 SSW 8 10 1024.1 F 1.6 Distant precip. Mostly cloudy 9 - - - -
29/08:30am 19.2 SSW 8 9 1024.1 - 1.6 Showers Mostly clear 8 - - - -
29/08:00am 18.4 SSW 9 11 1024.1 - 1.4 - Mostly clear 9 - - - -
29/07:30am 18.0 SSW 7 9 1023.9 - 1.2 Showers Mostly clear 6 - - - -
29/07:16am 18.0 SSW 7 8 1023.6 - 1.0 Showers Mostly clear 9 - - - -
29/07:00am 17.7 SSW 5 7 1023.6 - 0.8 - Mostly clear 5 - - - -
29/06:39am 18.2 S 5 6 1023.4 - 0.0 Showers Mostly clear 5 - - - -
29/06:30am 18.1 SSW 5 6 1023.2 - 0.0 Showers Mostly clear 9 - - - -
29/06:00am 17.9 SSW 8 10 1023.0 R 0.0 Distant precip. Mostly cloudy 20 - - - -
29/05:30am 17.6 SSW 7 8 1022.5 - 0.0 - Mostly clear 10 - - - -
29/05:00am 17.3 SSW 7 8 1022.1 - 0.0 - Cloudy 10 - - - -
29/04:30am 17.1 SSW 7 8 1022.0 - 0.0 - Partly cloudy 10 - - - -
29/04:00am 17.4 SW 6 7 1022.1 - 0.0 - Partly cloudy 10 - - - -
29/03:30am 17.6 SSW 7 8 1021.8 - 0.0 - Mostly clear 10 - - - -
29/03:00am 17.1 S 5 6 1022.1 R 0.0 Fine Mostly clear 25 - - - -
29/02:30am 17.5 SSW 7 8 1022.3 - 0.0 - Mostly clear 10 - - - -
29/02:00am 16.9 SSW 6 7 1022.7 - 0.0 - Mostly clear 10 - - - -
29/01:30am 16.9 SSW 5 6 1022.9 - 0.0 - Partly cloudy 10 - - - -
29/01:00am 18.7 S 5 6 1022.8 - 0.0 - - 10 - - - -
29/12:30am 17.6 S 5 6 1022.9 - 0.0 - - 10 - - - -
29/12:00am 17.7 SSW 6 6 1023.1 F 0.0 Fine Clear 25 - - - -
 
Date/Time
EST
Temp

°C
Wind Pressure Rain
since 9am
mm
Weather Cloud Vis
km
Sea
Height
m
Swell
Dir
 
Speed
knots
Gust
knots
hPa Trend Height
m
Period
s
Dir
28/11:30pm 19.2 S 5 7 1023.3 - 0.0 - - 10 - - - -
28/11:00pm 18.8 SSW 5 6 1023.6 - 0.0 - - 10 - - - -
28/10:30pm 19.4 S 4 4 1023.5 - 0.0 - Mostly clear 10 - - - -
28/10:00pm 19.5 SSE 3 4 1023.6 - 0.0 - Mostly clear 10 - - - -
28/09:30pm 19.6 SSE 4 5 1023.8 - 0.0 - Mostly clear 10 - - - -
28/09:00pm 21.4 SSE 4 4 1023.8 F 0.0 Fine Mostly clear 30 - - - -
28/08:30pm 21.5 SE 4 5 1023.5 - 0.0 - Mostly clear 10 - - - -
28/08:00pm 21.5 SE 3 5 1023.3 - 0.0 - Mostly clear 10 - - - -
28/07:30pm 21.8 ESE 4 6 1023.2 - 0.0 - Mostly clear 10 - - - -
28/07:00pm 22.3 ESE 4 6 1023.1 - 0.0 - Mostly clear 10 - - - -
28/06:30pm 22.6 E 5 7 1022.8 - 0.0 - Mostly clear 10 - - - -
28/06:00pm 22.9 E 5 8 1022.5 F 0.0 Haze Partly cloudy 20 - - - -
28/05:30pm 23.2 E 6 9 1022.2 - 0.0 - Mostly clear 10 - - - -
28/05:00pm 23.6 E 7 11 1022.1 - 0.0 - Mostly clear 10 - - - -
28/04:30pm 24.2 E 6 10 1021.8 - 0.0 - Mostly clear 10 - - - -
28/04:00pm 24.5 ENE 8 12 1021.8 - 0.0 - Mostly clear 10 - - - -
28/03:30pm 25.6 ENE 10 15 1021.6 - 0.0 - Mostly clear 10 - - - -
28/03:00pm 24.8 ENE 10 14 1021.6 R 0.0 Haze Mostly cloudy 20 - - - -
28/02:30pm 25.7 ENE 10 14 1021.5 - 0.0 - Partly cloudy 10 - - - -
28/02:00pm 25.8 ENE 11 16 1021.5 - 0.0 - Partly cloudy 10 - - - -
28/01:30pm 25.9 ENE 11 16 1021.4 - 0.0 - Partly cloudy 10 - - - -
28/01:00pm 26.3 ENE 10 16 1021.8 - 0.0 - Partly cloudy 10 - - - -
28/12:30pm 25.4 E 8 12 1022.1 - 0.0 - Partly cloudy 10 - - - -
28/12:00pm 26.1 E 10 15 1022.5 R 0.0 Distant precip. Mostly cloudy 20 - - - -
28/11:30am 25.5 E 5 9 1022.9 - 0.0 - Partly cloudy 10 - - - -
28/11:00am 25.1 ENE 7 12 1023.3 - 0.0 - Partly cloudy 10 - - - -
28/10:30am 25.1 E 9 12 1023.5 - 0.0 - Mostly clear 10 - - - -
28/10:00am 25.1 E 7 10 1023.8 - 0.0 - Mostly clear 10 - - - -
28/09:30am 24.6 SE 5 8 1023.7 - 0.0 - Mostly clear 10 - - - -
28/09:00am 23.0 S 5 8 1023.8 R 0.0 Distant precip. Mostly cloudy 20 - - - -
28/08:30am 21.5 SSW 6 8 1023.8 - 0.0 - Mostly clear 10 - - - -
28/08:00am 20.2 S 6 8 1023.5 - 0.0 - Mostly clear 10 - - - -
28/07:30am 19.7 SSW 7 8 1023.3 - 0.0 - Mostly clear 10 - - - -
28/07:00am 18.7 SSW 4 5 1022.9 - 0.0 - Mostly clear 10 - - - -
28/06:30am 18.1 S 5 7 1022.6 - 0.0 - Mostly clear 10 - - - -
28/06:00am 18.1 S 7 8 1022.4 F 0.0 Recent precip. Mostly cloudy 16 - - - -
28/05:30am 18.0 SSW 7 10 1022.4 - 0.0 Showers Mostly clear 10 - - - -
28/05:00am 17.8 SSW 6 8 1022.3 - 0.0 - Mostly clear 10 - - - -
28/04:30am 17.2 SSW 6 8 1022.2 - 0.0 Showers Mostly clear 10 - - - -
28/04:00am 16.1 SSW 8 9 1022.1 - 0.0 - Mostly clear 10 - - - -
28/03:30am 16.4 SSW 8 10 1022.0 - 0.0 - Mostly clear 10 - - - -
28/03:00am 16.7 SSW 8 9 1022.1 R 0.0 Distant precip. Mostly clear 20 - - - -
28/02:30am 17.5 SSW 8 10 1022.2 - 0.0 - Mostly clear 10 - - - -
28/02:00am 18.3 SSW 7 8 1022.4 - 0.0 - Mostly clear 10 - - - -
28/01:30am 18.1 SSW 6 7 1022.5 - 0.0 - Mostly clear 10 - - - -
28/01:00am 18.0 SSW 7 8 1022.7 - 0.0 - Mostly clear 10 - - - -
28/12:30am 17.4 SSW 7 9 1022.8 - 0.0 - Mostly clear 10 - - - -
28/12:00am 17.4 SSW 7 9 1022.9 S 0.0 Distant precip. Mostly clear 20 - - - -
 
Date/Time
EST
Temp

°C
Wind Pressure Rain
since 9am
mm
Weather Cloud Vis
km
Sea
Height
m
Swell
Dir
 
Speed
knots
Gust
knots
hPa Trend Height
m
Period
s
Dir
27/11:30pm 17.5 SSW 6 7 1023.0 - 0.0 - Mostly clear 10 - - - -
27/11:00pm 18.8 S 5 7 1023.1 - 0.0 - Mostly clear 10 - - - -
27/10:30pm 18.1 SSW 6 8 1023.2 - 0.0 - Mostly clear 10 - - - -
27/10:00pm 18.7 SSW 5 6 1023.3 - 0.0 - Mostly clear 10 - - - -
27/09:30pm 19.3 S 5 7 1023.4 - 0.0 - Mostly clear 10 - - - -
27/09:00pm 19.9 S 6 8 1023.4 F 0.0 Haze Mostly clear 20 - - - -
27/08:30pm 19.6 S 5 8 1023.4 - 0.0 - Mostly clear 10 - - - -
27/08:00pm 20.2 S 5 8 1023.3 - 0.0 - Mostly clear 10 - - - -
27/07:30pm 20.5 S 5 6 1023.0 - 0.0 Showers Mostly clear 10 - - - -
27/07:00pm 20.3 S 6 9 1023.0 - 0.0 - Mostly clear 10 - - - -
27/06:30pm 20.5 S 7 10 1022.8 - 0.0 - Mostly clear 10 - - - -
27/06:00pm 20.8 SSE 6 8 1022.4 S 0.0 Distant precip. Mostly cloudy 30 - - - -
27/05:30pm 21.5 SE 7 11 1022.2 - 0.0 - Mostly clear 10 - - - -

Other Formats:

Comma delimited format used in spreadsheet applications
http://www.bom.gov.au/fwo/IDQ60701/IDQ60701.94578.axf

JavaScript Object Notation format (JSON) in row-major order
http://www.bom.gov.au/fwo/IDQ60701/IDQ60701.94578.json